Time;durP1;ratioP1;P1;durP2;ratioP2;P2;SDS_P1;SDS_P2;PMS_P1;PMS_P2;Temp;Humidity;BMP_temperature;BMP_pressure;BME280_temperature;BME280_humidity;BME280_pressure;Samples;Min_cycle;Max_cycle;Signal;HPM_P1;HPM_P2
2023/07/09 00:01:58;;;;;;;4.40;3.77;;;25.70;42.30;;;;;;20798;6826;73342;-81
2023/07/09 00:04:23;;;;;;;4.93;4.40;;;25.80;42.00;;;;;;20804;6826;66796;-81
2023/07/09 00:06:49;;;;;;;6.12;4.40;;;25.70;42.10;;;;;;20590;6826;318045;-81
2023/07/09 00:09:19;;;;;;;4.50;4.10;;;25.90;42.10;;;;;;20837;6826;66944;-81
2023/07/09 00:11:45;;;;;;;4.60;4.20;;;25.90;41.90;;;;;;20592;6826;307689;-81
2023/07/09 00:14:10;;;;;;;5.30;4.50;;;26.00;42.70;;;;;;20601;6826;321253;-81
2023/07/09 00:16:36;;;;;;;5.10;4.70;;;26.60;41.20;;;;;;20594;6826;310041;-82
2023/07/09 00:19:02;;;;;;;5.80;5.03;;;26.50;41.10;;;;;;20798;6826;66359;-81
2023/07/09 00:21:33;;;;;;;5.00;4.60;;;26.40;41.20;;;;;;20583;6826;308054;-81
2023/07/09 00:23:53;;;;;;;4.40;4.10;;;26.30;41.50;;;;;;20571;6826;311178;-81
2023/07/09 00:26:23;;;;;;;4.87;4.50;;;26.50;41.40;;;;;;20590;6826;307090;-81
2023/07/09 00:28:44;;;;;;;5.07;4.57;;;26.60;41.30;;;;;;20559;6826;307079;-81
2023/07/09 00:31:14;;;;;;;4.40;4.10;;;26.70;41.30;;;;;;20798;6826;66321;-81
2023/07/09 00:33:41;;;;;;;4.70;4.30;;;26.40;41.50;;;;;;20583;6826;306716;-80
2023/07/09 00:36:17;;;;;;;6.23;4.40;;;26.30;41.80;;;;;;20797;6826;66256;-80
2023/07/09 00:38:47;;;;;;;5.43;4.93;;;26.10;42.10;;;;;;20576;6824;307632;-80
2023/07/09 00:41:08;;;;;;;5.03;4.33;;;26.10;42.80;;;;;;20796;6826;66880;-81
2023/07/09 00:43:38;;;;;;;4.70;4.40;;;25.60;43.30;;;;;;20792;6826;66682;-81
2023/07/09 00:46:19;;;;;;;5.07;4.63;;;25.50;43.20;;;;;;20812;6826;66520;-81
2023/07/09 00:48:57;;;;;;;5.15;4.75;;;25.30;43.80;;;;;;20599;6826;281837;-80
2023/07/09 00:51:20;;;;;;;5.53;5.12;;;25.40;44.60;;;;;;20584;6826;288817;-81
2023/07/09 00:53:46;;;;;;;5.17;4.67;;;25.60;44.20;;;;;;20579;6826;307172;-80
2023/07/09 00:56:14;;;;;;;5.37;4.87;;;25.90;43.90;;;;;;20587;6826;278794;-80
2023/07/09 00:58:38;;;;;;;5.50;4.90;;;25.90;43.60;;;;;;20579;6826;280205;-80
2023/07/09 01:01:03;;;;;;;5.07;4.63;;;26.00;43.10;;;;;;20628;6826;277693;-81
2023/07/09 01:03:29;;;;;;;6.55;4.90;;;26.00;42.80;;;;;;20625;6826;307043;-80
2023/07/09 01:05:55;;;;;;;5.37;5.07;;;26.20;42.60;;;;;;20577;6826;277260;-81
2023/07/09 01:08:20;;;;;;;6.10;4.77;;;26.10;42.50;;;;;;20804;6826;67398;-80
2023/07/09 01:10:46;;;;;;;4.63;4.33;;;25.80;42.80;;;;;;20804;6826;71371;-80
2023/07/09 01:13:12;;;;;;;5.20;4.70;;;25.40;43.30;;;;;;20587;6826;308547;-80
2023/07/09 01:15:37;;;;;;;5.17;4.77;;;25.40;43.90;;;;;;20589;6826;306669;-80
2023/07/09 01:18:03;;;;;;;5.00;4.60;;;25.60;43.90;;;;;;20817;6826;69634;-80
2023/07/09 01:20:28;;;;;;;5.00;4.60;;;25.40;43.70;;;;;;20593;6826;278545;-80
2023/07/09 01:22:56;;;;;;;5.00;4.60;;;25.40;44.00;;;;;;20602;6826;300202;-81
2023/07/09 01:25:19;;;;;;;5.12;4.65;;;25.60;43.80;;;;;;20603;6826;307087;-80
2023/07/09 01:27:46;;;;;;;5.53;4.00;;;25.80;43.60;;;;;;20812;6826;67113;-80
2023/07/09 01:30:14;;;;;;;4.97;4.47;;;25.50;43.60;;;;;;20815;6826;67490;-82
2023/07/09 01:32:37;;;;;;;6.37;4.47;;;25.20;44.00;;;;;;20784;6826;66244;-80
2023/07/09 01:35:06;;;;;;;5.37;5.00;;;24.80;44.20;;;;;;20613;6826;336143;-80
2023/07/09 01:37:29;;;;;;;5.20;4.70;;;25.00;44.60;;;;;;20800;6826;67094;-80
2023/07/09 01:39:56;;;;;;;5.87;5.28;;;24.90;44.50;;;;;;20607;6826;307158;-82
2023/07/09 01:42:21;;;;;;;5.00;4.60;;;25.00;44.90;;;;;;20818;6826;66275;-80
2023/07/09 01:44:47;;;;;;;4.93;4.53;;;24.90;44.70;;;;;;20801;6826;66327;-81
2023/07/09 01:47:12;;;;;;;5.67;5.23;;;24.60;44.80;;;;;;20600;6826;278135;-80
2023/07/09 01:49:39;;;;;;;4.60;4.30;;;24.70;44.90;;;;;;20811;6826;67114;-81
2023/07/09 01:52:04;;;;;;;4.90;4.50;;;24.70;44.80;;;;;;20596;6824;306360;-80
2023/07/09 01:54:30;;;;;;;4.73;4.40;;;25.00;44.70;;;;;;20605;6826;307098;-81
2023/07/09 01:57:01;;;;;;;5.40;4.80;;;25.20;44.30;;;;;;20608;6826;278115;-80
2023/07/09 01:59:22;;;;;;;5.72;4.80;;;25.20;44.30;;;;;;20537;6826;277228;-80
2023/07/09 02:01:49;;;;;;;5.50;5.10;;;25.50;44.10;;;;;;20539;6826;306768;-80
2023/07/09 02:04:14;;;;;;;4.90;4.40;;;25.50;44.10;;;;;;20814;6826;67745;-80
2023/07/09 02:06:39;;;;;;;5.28;4.97;;;25.20;44.20;;;;;;20610;6826;336195;-83
2023/07/09 02:09:05;;;;;;;4.73;4.43;;;25.10;44.60;;;;;;20817;6826;67116;-80
2023/07/09 02:11:30;;;;;;;4.85;4.55;;;24.90;44.70;;;;;;20838;6826;66315;-80
2023/07/09 02:13:56;;;;;;;5.27;4.87;;;24.60;45.20;;;;;;20616;6826;279116;-80
2023/07/09 02:16:22;;;;;;;5.47;4.97;;;24.90;45.30;;;;;;20620;6826;336181;-80
2023/07/09 02:18:48;;;;;;;5.27;4.97;;;24.90;45.20;;;;;;20610;6826;307118;-80
2023/07/09 02:21:13;;;;;;;6.53;5.40;;;25.10;44.90;;;;;;20622;6826;276150;-80
2023/07/09 02:23:42;;;;;;;4.80;4.50;;;25.20;44.70;;;;;;20824;6826;67267;-80
2023/07/09 02:26:07;;;;;;;5.50;5.10;;;25.00;44.90;;;;;;20614;6826;340655;-79
2023/07/09 02:28:33;;;;;;;5.23;4.73;;;25.00;45.20;;;;;;20829;6826;70511;-79
2023/07/09 02:30:58;;;;;;;6.27;4.40;;;24.70;45.20;;;;;;20829;6826;69042;-80
2023/07/09 02:33:24;;;;;;;5.93;5.18;;;24.40;45.50;;;;;;20614;6826;307579;-80
2023/07/09 02:35:49;;;;;;;4.80;4.50;;;24.50;46.00;;;;;;20823;6826;66584;-79
2023/07/09 02:38:15;;;;;;;5.43;5.03;;;24.30;45.80;;;;;;20618;6826;307168;-80
2023/07/09 02:40:40;;;;;;;5.27;4.87;;;24.50;46.10;;;;;;20611;6826;335706;-79
2023/07/09 02:43:06;;;;;;;5.63;5.20;;;24.70;45.80;;;;;;20824;6826;66739;-80
2023/07/09 02:45:33;;;;;;;5.50;5.10;;;24.50;45.60;;;;;;20614;6826;310585;-80
2023/07/09 02:47:58;;;;;;;5.40;5.00;;;24.60;45.80;;;;;;20827;6826;71393;-80
2023/07/09 02:50:24;;;;;;;5.62;5.12;;;24.40;45.80;;;;;;20621;6826;313187;-79
2023/07/09 02:52:49;;;;;;;4.80;4.40;;;24.40;46.00;;;;;;20828;6826;66248;-80
2023/07/09 02:55:15;;;;;;;5.13;4.80;;;24.30;46.00;;;;;;20596;6826;291610;-80
2023/07/09 02:57:41;;;;;;;5.23;4.83;;;24.30;46.20;;;;;;20803;6826;69610;-80
2023/07/09 03:00:07;;;;;;;5.40;4.90;;;24.20;46.20;;;;;;20805;6826;67282;-80
2023/07/09 03:02:32;;;;;;;5.57;5.07;;;23.90;46.50;;;;;;20808;6825;66698;-80
2023/07/09 03:04:57;;;;;;;5.20;4.80;;;23.60;46.70;;;;;;20802;6826;66642;-80
2023/07/09 03:07:23;;;;;;;5.80;5.30;;;23.50;47.10;;;;;;20596;6826;306722;-80
2023/07/09 03:09:48;;;;;;;5.70;5.20;;;23.60;47.40;;;;;;20809;6826;66259;-79
2023/07/09 03:12:15;;;;;;;5.15;4.75;;;23.40;47.30;;;;;;20819;6826;67098;-80
2023/07/09 03:14:41;;;;;;;5.20;4.70;;;23.40;47.30;;;;;;20598;6826;336999;-79
2023/07/09 03:17:08;;;;;;;6.07;5.40;;;23.50;47.60;;;;;;20609;6826;278674;-79
2023/07/09 03:19:34;;;;;;;6.15;5.55;;;23.90;47.20;;;;;;20601;6826;336165;-79
2023/07/09 03:21:59;;;;;;;5.80;5.40;;;24.10;46.70;;;;;;20604;6826;277999;-80
2023/07/09 03:24:25;;;;;;;5.80;5.30;;;24.30;46.30;;;;;;20658;6826;334620;-79
2023/07/09 03:26:51;;;;;;;5.50;5.00;;;24.50;46.10;;;;;;20851;6826;70002;-78
2023/07/09 03:29:17;;;;;;;5.87;5.27;;;24.20;46.20;;;;;;20597;6826;281909;-79
2023/07/09 03:31:43;;;;;;;5.87;5.40;;;24.20;46.40;;;;;;20580;6826;283400;-79
2023/07/09 03:34:08;;;;;;;5.90;5.50;;;24.30;46.20;;;;;;20578;6826;313153;-79
2023/07/09 03:36:37;;;;;;;5.67;5.13;;;24.50;46.00;;;;;;20793;6826;66741;-79
2023/07/09 03:38:59;;;;;;;6.15;5.15;;;24.20;46.10;;;;;;20774;6826;89391;-79
2023/07/09 03:41:25;;;;;;;5.90;5.50;;;23.80;46.60;;;;;;20785;6826;66351;-79
2023/07/09 03:43:52;;;;;;;5.77;5.37;;;23.50;47.00;;;;;;20566;6826;308051;-79
2023/07/09 03:46:16;;;;;;;5.57;5.10;;;23.70;47.60;;;;;;20780;6826;67722;-79
2023/07/09 03:48:41;;;;;;;5.87;5.37;;;23.50;47.30;;;;;;20785;6826;67260;-79
2023/07/09 03:51:08;;;;;;;6.33;5.87;;;23.50;48.00;;;;;;20582;6826;313211;-79
2023/07/09 03:53:33;;;;;;;5.77;5.27;;;23.40;47.90;;;;;;20800;6826;66827;-79
2023/07/09 03:56:00;;;;;;;5.93;5.20;;;23.40;47.80;;;;;;20793;6826;68043;-79
2023/07/09 03:58:25;;;;;;;6.23;5.73;;;23.20;48.00;;;;;;20581;6826;278591;-79
2023/07/09 04:00:50;;;;;;;5.90;5.37;;;23.70;48.50;;;;;;20574;6826;335800;-79
2023/07/09 04:03:16;;;;;;;6.00;5.47;;;23.70;47.90;;;;;;20584;6826;306794;-78
2023/07/09 04:05:42;;;;;;;5.37;4.90;;;24.00;47.50;;;;;;20796;6826;67937;-80
2023/07/09 04:08:09;;;;;;;6.03;5.53;;;23.80;47.40;;;;;;20574;6826;283362;-79
2023/07/09 04:10:34;;;;;;;6.05;5.55;;;23.90;47.40;;;;;;20573;6826;310813;-80
2023/07/09 04:13:00;;;;;;;5.70;5.27;;;24.00;47.10;;;;;;20780;6826;70163;-79
2023/07/09 04:15:25;;;;;;;5.90;5.20;;;23.90;47.30;;;;;;20792;6825;66250;-79
2023/07/09 04:17:52;;;;;;;6.40;4.83;;;23.50;47.60;;;;;;20784;6826;66632;-79
2023/07/09 04:20:18;;;;;;;5.87;5.47;;;23.30;48.10;;;;;;20798;6826;71041;-79
2023/07/09 04:22:44;;;;;;;5.43;5.03;;;23.10;48.30;;;;;;20794;6826;67605;-82
2023/07/09 04:25:09;;;;;;;5.13;4.70;;;23.00;48.50;;;;;;20799;6826;67872;-81
2023/07/09 04:27:35;;;;;;;5.00;4.70;;;22.90;49.50;;;;;;20802;6826;75206;-79
2023/07/09 04:30:01;;;;;;;5.77;5.30;;;22.80;49.00;;;;;;20788;6826;67664;-80
2023/07/09 04:32:27;;;;;;;5.77;4.70;;;22.80;48.90;;;;;;20733;6826;67783;-80
2023/07/09 04:34:53;;;;;;;5.53;5.20;;;22.70;49.00;;;;;;20778;6826;66659;-80
2023/07/09 04:37:18;;;;;;;5.73;5.30;;;22.70;49.10;;;;;;20537;6826;307175;-80
2023/07/09 04:39:45;;;;;;;6.30;5.78;;;23.00;49.40;;;;;;20572;6826;336223;-80
2023/07/09 04:42:10;;;;;;;6.00;5.47;;;23.50;48.70;;;;;;20772;6826;67305;-78
2023/07/09 04:44:36;;;;;;;6.23;5.80;;;23.50;48.40;;;;;;20554;6826;308679;-76
2023/07/09 04:47:02;;;;;;;6.07;5.00;;;23.60;48.20;;;;;;20773;6826;72689;-80
2023/07/09 04:49:28;;;;;;;5.93;5.30;;;23.50;48.10;;;;;;20777;6826;71898;-77
2023/07/09 04:51:56;;;;;;;6.37;4.83;;;23.20;48.70;;;;;;20785;6826;67760;-78
2023/07/09 04:54:22;;;;;;;6.03;5.30;;;23.20;48.70;;;;;;20693;6826;76573;-79
2023/07/09 04:56:46;;;;;;;5.90;5.40;;;23.10;48.90;;;;;;20553;6826;309029;-78
2023/07/09 04:59:11;;;;;;;6.33;5.87;;;23.30;49.00;;;;;;20561;6826;277216;-78
2023/07/09 05:01:49;;;;;;;5.18;4.78;;;23.80;48.50;;;;;;20662;6826;67969;-79
2023/07/09 05:04:32;;;;;;;5.97;5.37;;;23.80;48.30;;;;;;20575;6826;67206;-77
2023/07/09 05:06:58;;;;;;;5.00;4.63;;;23.50;48.40;;;;;;20641;6826;66814;-78
2023/07/09 05:09:23;;;;;;;5.87;5.37;;;23.40;48.70;;;;;;20728;6826;69142;-78
2023/07/09 05:11:49;;;;;;;5.30;4.87;;;23.30;49.00;;;;;;20747;6826;69411;-77
2023/07/09 05:14:14;;;;;;;6.22;5.65;;;23.20;49.10;;;;;;20546;6826;281180;-77
2023/07/09 05:16:40;;;;;;;6.30;5.75;;;23.60;49.20;;;;;;20527;6826;337059;-79
2023/07/09 05:19:06;;;;;;;6.03;5.53;;;24.00;48.50;;;;;;20768;6826;66859;-81
2023/07/09 05:21:31;;;;;;;6.32;5.75;;;24.00;48.20;;;;;;20549;6826;277675;-78
2023/07/09 05:23:57;;;;;;;6.03;5.60;;;24.20;48.90;;;;;;20554;6826;306299;-79
2023/07/09 05:26:22;;;;;;;6.00;5.60;;;24.50;47.80;;;;;;20772;6825;66713;-79
2023/07/09 05:28:48;;;;;;;6.30;5.77;;;24.40;47.80;;;;;;20566;6826;281294;-79
2023/07/09 05:31:14;;;;;;;5.93;5.35;;;24.30;47.90;;;;;;20758;6826;70573;-79
2023/07/09 05:33:40;;;;;;;6.03;5.53;;;24.30;47.90;;;;;;20493;6826;306186;-75
2023/07/09 05:36:07;;;;;;;5.83;5.33;;;24.40;48.20;;;;;;20563;6826;277781;-80
2023/07/09 05:38:31;;;;;;;5.83;5.33;;;24.60;48.00;;;;;;20779;6826;80552;-83
2023/07/09 05:41:00;;;;;;;6.00;5.50;;;24.50;48.00;;;;;;20573;6826;308040;-80
2023/07/09 05:43:26;;;;;;;5.73;5.33;;;24.60;47.80;;;;;;20558;6826;307522;-77
2023/07/09 05:45:51;;;;;;;5.97;5.47;;;24.80;47.30;;;;;;20784;6826;68338;-81
2023/07/09 05:48:16;;;;;;;5.83;5.33;;;24.70;47.30;;;;;;20470;6826;284283;-79
2023/07/09 05:50:43;;;;;;;6.80;6.10;;;25.10;46.90;;;;;;20549;6826;339611;-78
2023/07/09 05:53:08;;;;;;;6.37;5.47;;;25.10;46.90;;;;;;20771;6826;66261;-78
2023/07/09 05:55:34;;;;;;;6.10;5.60;;;25.00;47.00;;;;;;20550;6826;317432;-78
2023/07/09 05:57:59;;;;;;;5.43;5.03;;;25.10;47.20;;;;;;20774;6826;66795;-78
2023/07/09 06:00:25;;;;;;;5.23;4.80;;;25.00;47.10;;;;;;20673;6826;66398;-75
2023/07/09 06:02:51;;;;;;;6.05;5.55;;;24.80;47.30;;;;;;20537;6826;278345;-75
2023/07/09 06:05:16;;;;;;;5.87;5.47;;;25.00;47.20;;;;;;20559;6826;278650;-74
2023/07/09 06:07:42;;;;;;;6.27;5.67;;;25.80;45.80;;;;;;20546;6826;312576;-74
2023/07/09 06:10:08;;;;;;;6.00;5.50;;;25.80;45.70;;;;;;20719;6826;66916;-76
2023/07/09 06:12:37;;;;;;;6.43;5.13;;;25.80;45.70;;;;;;20691;6826;69543;-79
2023/07/09 06:15:03;;;;;;;6.00;5.60;;;25.60;46.00;;;;;;20549;6826;341533;-76
2023/07/09 06:17:28;;;;;;;6.40;5.77;;;25.90;45.60;;;;;;20778;6826;66977;-74
2023/07/09 06:19:54;;;;;;;5.23;4.83;;;26.20;45.80;;;;;;20771;6826;67072;-76
2023/07/09 06:22:20;;;;;;;7.07;5.53;;;26.80;45.80;;;;;;20778;6826;67661;-77
2023/07/09 06:24:47;;;;;;;5.37;4.97;;;26.80;45.80;;;;;;20809;6826;66299;-78
2023/07/09 06:27:13;;;;;;;6.45;5.82;;;27.20;45.30;;;;;;20578;6826;333686;-76
2023/07/09 06:29:38;;;;;;;5.87;5.45;;;28.00;42.40;;;;;;20574;6826;278117;-75
2023/07/09 06:32:04;;;;;;;5.87;5.57;;;29.00;40.80;;;;;;20582;6826;278472;-75
2023/07/09 06:34:29;;;;;;;5.60;5.20;;;29.90;39.20;;;;;;20790;6826;67242;-76
2023/07/09 06:36:55;;;;;;;6.07;5.50;;;30.20;39.50;;;;;;20579;6824;282116;-76
2023/07/09 06:39:21;;;;;;;6.00;5.40;;;30.80;37.60;;;;;;20791;6826;69009;-76
2023/07/09 06:41:48;;;;;;;5.73;5.10;;;31.10;38.70;;;;;;20781;6826;88642;-78
2023/07/09 06:44:13;;;;;;;5.70;5.20;;;31.10;38.20;;;;;;20580;6826;278474;-76
2023/07/09 06:46:39;;;;;;;5.75;5.45;;;31.60;36.30;;;;;;20585;6826;306349;-77
2023/07/09 06:49:08;;;;;;;5.77;5.37;;;32.20;35.40;;;;;;20788;6826;66867;-76
2023/07/09 06:51:33;;;;;;;5.70;5.00;;;32.40;36.00;;;;;;20790;6826;66717;-75
2023/07/09 06:54:00;;;;;;;5.50;5.10;;;32.70;34.80;;;;;;20575;6826;277095;-77
2023/07/09 06:56:25;;;;;;;5.27;4.77;;;32.70;34.80;;;;;;20797;6826;67194;-78
2023/07/09 06:58:52;;;;;;;6.10;5.50;;;32.90;35.10;;;;;;20802;6826;68320;-81
2023/07/09 07:01:17;;;;;;;6.03;5.53;;;32.90;35.40;;;;;;20597;6826;307615;-81
2023/07/09 07:03:43;;;;;;;5.85;5.32;;;33.30;33.80;;;;;;20591;6826;314676;-80
2023/07/09 07:06:09;;;;;;;5.65;5.22;;;34.30;32.40;;;;;;20586;6826;307215;-81
2023/07/09 07:08:35;;;;;;;6.03;5.53;;;34.30;32.40;;;;;;20602;6826;311535;-80
2023/07/09 07:11:04;;;;;;;5.78;5.37;;;34.70;31.80;;;;;;20592;6826;307181;-82
2023/07/09 07:13:29;;;;;;;5.70;5.30;;;34.80;31.20;;;;;;20798;6826;66863;-80
2023/07/09 07:15:54;;;;;;;4.83;4.43;;;34.60;31.80;;;;;;20794;6826;67666;-80
2023/07/09 07:18:21;;;;;;;5.75;5.35;;;34.40;32.30;;;;;;20580;6826;316169;-81
2023/07/09 07:20:47;;;;;;;5.70;5.10;;;34.60;32.60;;;;;;20803;6826;66245;-81
2023/07/09 07:23:13;;;;;;;5.07;4.70;;;34.60;31.90;;;;;;20797;6826;66258;-81
2023/07/09 07:25:39;;;;;;;5.03;4.73;;;34.40;32.50;;;;;;20813;6826;70555;-80
2023/07/09 07:28:10;;;;;;;6.03;5.00;;;34.40;32.50;;;;;;20588;6826;306753;-81
2023/07/09 07:30:36;;;;;;;5.07;4.67;;;34.60;31.30;;;;;;20792;6826;66241;-79
2023/07/09 07:33:02;;;;;;;4.90;4.50;;;34.70;31.40;;;;;;20788;6826;66750;-79
2023/07/09 07:35:27;;;;;;;5.00;4.60;;;34.50;31.20;;;;;;20577;6826;336582;-78
2023/07/09 07:37:54;;;;;;;4.77;4.27;;;34.70;30.60;;;;;;20805;6826;67127;-81
2023/07/09 07:40:19;;;;;;;5.20;4.80;;;34.70;30.60;;;;;;20805;6826;70688;-81
2023/07/09 07:42:46;;;;;;;5.20;4.80;;;34.40;30.70;;;;;;20587;6826;306302;-81
2023/07/09 07:45:12;;;;;;;5.20;4.80;;;34.50;31.00;;;;;;20595;6826;278071;-81
2023/07/09 07:47:39;;;;;;;5.33;4.87;;;34.80;30.50;;;;;;20586;6826;307631;-81
2023/07/09 07:50:03;;;;;;;4.77;4.47;;;35.00;31.00;;;;;;20800;6824;70801;-81
2023/07/09 07:52:29;;;;;;;5.03;4.70;;;34.90;30.90;;;;;;20590;6826;279203;-81
2023/07/09 07:54:55;;;;;;;5.40;4.90;;;35.20;30.00;;;;;;20601;6826;281615;-81
2023/07/09 07:57:21;;;;;;;5.47;4.53;;;35.20;30.00;;;;;;20801;6826;66702;-81
2023/07/09 07:59:47;;;;;;;5.30;4.90;;;35.20;30.20;;;;;;20583;6826;289785;-80
2023/07/09 08:02:14;;;;;;;4.80;4.40;;;35.20;29.70;;;;;;20814;6826;67734;-81
2023/07/09 08:04:40;;;;;;;4.57;4.27;;;34.90;30.30;;;;;;20812;6826;66726;-80
2023/07/09 08:07:07;;;;;;;5.03;4.63;;;34.90;30.20;;;;;;20809;6826;66241;-81
2023/07/09 08:09:32;;;;;;;5.10;4.80;;;34.70;30.50;;;;;;20592;6826;308631;-81
2023/07/09 08:11:58;;;;;;;5.00;4.60;;;34.90;30.60;;;;;;20802;6826;71011;-81
2023/07/09 08:14:25;;;;;;;5.00;4.70;;;35.00;30.50;;;;;;20805;6826;66310;-81
2023/07/09 08:16:52;;;;;;;5.60;5.07;;;35.10;30.00;;;;;;20591;6826;277929;-81
2023/07/09 08:19:17;;;;;;;5.17;4.70;;;35.10;29.90;;;;;;20590;6826;311754;-81
2023/07/09 08:21:43;;;;;;;5.87;4.67;;;35.90;30.00;;;;;;20581;6826;309301;-79
2023/07/09 08:24:09;;;;;;;5.15;4.65;;;35.90;29.40;;;;;;20576;6826;337520;-79
2023/07/09 08:26:37;;;;;;;5.03;4.53;;;36.20;29.20;;;;;;20792;6826;67247;-79
2023/07/09 08:29:00;;;;;;;5.10;4.60;;;36.20;29.20;;;;;;20782;6826;66909;-79
2023/07/09 08:31:25;;;;;;;5.27;4.77;;;36.10;29.60;;;;;;20580;6826;283952;-80
2023/07/09 08:33:51;;;;;;;5.27;4.73;;;36.20;29.50;;;;;;20800;6826;66514;-80
2023/07/09 08:36:17;;;;;;;4.80;4.40;;;36.40;29.80;;;;;;20598;6826;306281;-82
2023/07/09 08:38:42;;;;;;;4.70;4.30;;;36.60;29.30;;;;;;20811;6826;67250;-80
2023/07/09 08:41:09;;;;;;;8.17;4.10;;;36.60;29.30;;;;;;20794;6826;66698;-81
2023/07/09 08:43:55;;;;;;;4.90;4.50;;;36.60;29.40;;;;;;20399;6826;278242;-78
2023/07/09 08:46:40;;;;;;;4.20;4.00;;;36.70;28.60;;;;;;20774;6826;66872;-79
2023/07/09 08:49:07;;;;;;;5.37;4.50;;;37.00;28.50;;;;;;20591;6826;339708;-82
2023/07/09 08:51:37;;;;;;;4.23;3.80;;;37.00;28.50;;;;;;20748;6826;67310;-81
2023/07/09 08:54:02;;;;;;;4.43;4.03;;;37.10;28.10;;;;;;20802;6826;66891;-85
2023/07/09 08:56:28;;;;;;;4.20;3.80;;;36.90;28.00;;;;;;20809;6826;66940;-81
2023/07/09 08:58:53;;;;;;;4.10;3.77;;;36.80;28.00;;;;;;20794;6826;66284;-82
2023/07/09 09:01:22;;;;;;;4.27;3.87;;;36.70;28.10;;;;;;20801;6825;66767;-81
2023/07/09 09:03:55;;;;;;;4.23;3.83;;;37.10;25.50;;;;;;20555;6826;307565;-78
2023/07/09 09:06:20;;;;;;;5.28;3.90;;;37.10;25.50;;;;;;20582;6826;307074;-76
2023/07/09 09:09:02;;;;;;;4.10;3.80;;;37.50;25.70;;;;;;20790;6826;66838;-78
2023/07/09 09:11:48;;;;;;;4.10;3.70;;;37.50;26.10;;;;;;20221;6826;336613;-80
2023/07/09 09:14:28;;;;;;;4.20;3.75;;;37.70;26.00;;;;;;20553;6826;284405;-77
2023/07/09 09:16:51;;;;;;;4.27;3.97;;;38.00;25.40;;;;;;20468;6826;277695;-78
2023/07/09 09:19:20;;;;;;;4.20;3.80;;;38.20;25.30;;;;;;20790;6826;66735;-78
2023/07/09 09:21:46;;;;;;;3.70;3.40;;;37.90;25.40;;;;;;20774;6826;66253;-77
2023/07/09 09:24:22;;;;;;;3.47;3.20;;;37.90;25.30;;;;;;20789;6826;66829;-78
2023/07/09 09:26:47;;;;;;;4.10;3.70;;;37.80;25.10;;;;;;20774;6826;66825;-81
2023/07/09 09:29:14;;;;;;;4.07;3.60;;;37.70;25.20;;;;;;20794;6826;66695;-78
2023/07/09 09:31:39;;;;;;;4.00;3.60;;;37.60;25.10;;;;;;20577;6826;282313;-77
2023/07/09 09:34:06;;;;;;;5.70;3.80;;;37.90;24.70;;;;;;20569;6826;282270;-78
2023/07/09 09:36:31;;;;;;;3.70;3.40;;;38.30;24.60;;;;;;20768;6826;68418;-77
2023/07/09 09:38:57;;;;;;;4.00;3.70;;;38.40;24.80;;;;;;20769;6826;66928;-78
2023/07/09 09:41:26;;;;;;;3.30;3.00;;;38.30;24.50;;;;;;20784;6826;66830;-78
2023/07/09 09:43:52;;;;;;;4.03;3.40;;;38.10;24.30;;;;;;20571;6826;307190;-77
2023/07/09 09:46:18;;;;;;;3.83;3.53;;;38.70;24.00;;;;;;20568;6826;336809;-81
2023/07/09 09:48:44;;;;;;;4.00;3.70;;;38.70;23.90;;;;;;20574;6826;307137;-77
2023/07/09 09:51:09;;;;;;;3.93;3.53;;;39.10;24.00;;;;;;20785;6826;66272;-78
2023/07/09 09:53:38;;;;;;;3.80;3.50;;;39.00;24.20;;;;;;20576;6826;339932;-77
2023/07/09 09:56:04;;;;;;;5.20;3.47;;;39.00;23.60;;;;;;20786;6826;70551;-77
2023/07/09 09:58:29;;;;;;;3.87;3.57;;;38.90;23.70;;;;;;20576;6826;279775;-77
2023/07/09 10:00:55;;;;;;;3.92;3.62;;;39.00;23.30;;;;;;20575;6826;307063;-77
2023/07/09 10:03:20;;;;;;;4.77;3.80;;;39.20;23.00;;;;;;20789;6826;67226;-77
2023/07/09 10:05:52;;;;;;;3.87;3.47;;;39.10;23.20;;;;;;20799;6826;66917;-76
2023/07/09 10:08:25;;;;;;;4.13;3.70;;;38.80;23.40;;;;;;20558;6826;306727;-76
2023/07/09 10:10:50;;;;;;;4.27;3.50;;;38.90;23.80;;;;;;20762;6826;69574;-77
2023/07/09 10:13:23;;;;;;;3.93;3.57;;;39.00;23.90;;;;;;20782;6825;67470;-80
2023/07/09 10:16:05;;;;;;;3.63;3.27;;;38.80;24.10;;;;;;20770;6826;71916;-76
2023/07/09 10:18:43;;;;;;;3.90;3.60;;;38.70;24.10;;;;;;20563;6826;307589;-75
2023/07/09 10:21:15;;;;;;;4.15;3.83;;;39.00;23.40;;;;;;20787;6826;93691;-76
2023/07/09 10:24:08;;;;;;;4.40;4.00;;;39.00;23.60;;;;;;20554;6826;333013;-76
2023/07/09 10:26:50;;;;;;;4.40;4.00;;;39.40;23.80;;;;;;20559;6826;307032;-74
2023/07/09 10:29:38;;;;;;;3.55;3.35;;;39.40;23.80;;;;;;19999;6826;73607;-75
2023/07/09 10:32:20;;;;;;;5.00;3.47;;;39.40;23.90;;;;;;19729;7169;71243;-75
2023/07/09 10:34:53;;;;;;;4.70;3.80;;;39.50;24.20;;;;;;20542;6826;277670;-75
2023/07/09 10:37:23;;;;;;;3.80;3.50;;;39.60;23.90;;;;;;20792;6826;66719;-75
2023/07/09 10:39:56;;;;;;;3.70;3.30;;;39.50;23.70;;;;;;20744;6826;67188;-76
2023/07/09 10:42:21;;;;;;;5.33;4.17;;;39.40;23.70;;;;;;20574;6826;282837;-73
2023/07/09 10:44:47;;;;;;;3.90;3.60;;;39.50;23.60;;;;;;20776;6826;70337;-75
2023/07/09 10:47:13;;;;;;;4.63;4.23;;;39.50;23.60;;;;;;20556;6826;308418;-74
2023/07/09 10:49:39;;;;;;;4.10;3.80;;;39.40;24.20;;;;;;20757;6826;66919;-75
2023/07/09 10:52:11;;;;;;;4.53;4.10;;;39.40;23.50;;;;;;20777;6826;66301;-77
2023/07/09 10:55:07;;;;;;;4.53;4.20;;;39.10;23.80;;;;;;20554;6826;277599;-75
2023/07/09 10:57:39;;;;;;;4.32;4.03;;;39.20;24.10;;;;;;20582;6826;336697;-74
2023/07/09 11:00:08;;;;;;;4.03;3.83;;;39.50;24.90;;;;;;20781;6826;66244;-75
2023/07/09 11:02:34;;;;;;;4.27;3.97;;;39.50;24.30;;;;;;20583;6826;302782;-72
2023/07/09 11:05:00;;;;;;;4.13;3.83;;;39.60;24.20;;;;;;20791;6826;67355;-74
2023/07/09 11:07:31;;;;;;;4.53;3.92;;;39.60;24.00;;;;;;20780;6826;68677;-74
2023/07/09 11:09:57;;;;;;;4.63;4.23;;;39.40;23.70;;;;;;20788;6826;73894;-74
2023/07/09 11:12:33;;;;;;;4.40;4.10;;;39.20;23.70;;;;;;20578;6826;278106;-74
2023/07/09 11:15:01;;;;;;;4.47;4.10;;;39.20;23.70;;;;;;20761;6826;74824;-75
2023/07/09 11:17:29;;;;;;;4.20;3.75;;;39.00;24.00;;;;;;20764;6826;66741;-77
2023/07/09 11:19:54;;;;;;;4.30;4.00;;;39.00;23.90;;;;;;20743;6826;66869;-75
2023/07/09 11:22:20;;;;;;;4.93;3.83;;;38.90;24.10;;;;;;20791;6826;66632;-75
2023/07/09 11:24:50;;;;;;;4.57;4.13;;;38.70;24.30;;;;;;20578;6825;307337;-75
2023/07/09 11:27:21;;;;;;;4.40;4.00;;;38.80;24.60;;;;;;20576;6826;297917;-74
2023/07/09 11:30:03;;;;;;;4.00;3.70;;;39.10;23.80;;;;;;20801;6826;67161;-74
2023/07/09 11:32:28;;;;;;;5.93;4.40;;;39.10;23.40;;;;;;20533;6826;277776;-73
2023/07/09 11:34:54;;;;;;;4.90;4.30;;;39.00;23.40;;;;;;20592;6826;277374;-74
2023/07/09 11:37:20;;;;;;;4.60;3.93;;;39.10;23.80;;;;;;20805;6826;67274;-74
2023/07/09 11:39:47;;;;;;;4.30;4.00;;;39.10;23.70;;;;;;20582;6826;278151;-75
2023/07/09 11:42:29;;;;;;;4.47;4.07;;;39.10;23.40;;;;;;20595;6826;310999;-72
2023/07/09 11:45:09;;;;;;;4.40;3.93;;;39.20;22.90;;;;;;20757;6826;66284;-74
2023/07/09 11:47:36;;;;;;;4.40;4.00;;;39.10;22.90;;;;;;20748;6826;69870;-73
2023/07/09 11:50:04;;;;;;;4.60;4.30;;;38.80;23.20;;;;;;20564;6826;293730;-75
2023/07/09 11:52:32;;;;;;;4.50;4.10;;;38.80;23.40;;;;;;20757;6826;66925;-74
2023/07/09 11:54:57;;;;;;;4.50;4.10;;;38.70;23.40;;;;;;20576;6826;306708;-74
2023/07/09 11:57:23;;;;;;;4.43;4.03;;;38.70;23.40;;;;;;20770;6826;92274;-74
2023/07/09 11:59:49;;;;;;;4.40;3.73;;;38.00;24.00;;;;;;20772;6826;66245;-74
2023/07/09 12:02:15;;;;;;;3.77;3.53;;;38.00;24.00;;;;;;20791;6826;66713;-74
2023/07/09 12:04:41;;;;;;;7.90;4.13;;;37.60;24.20;;;;;;20751;6826;66694;-75
2023/07/09 12:07:08;;;;;;;4.77;3.77;;;37.60;24.20;;;;;;20581;6826;307631;-77
2023/07/09 12:09:33;;;;;;;7.93;4.00;;;37.90;23.60;;;;;;20775;6826;67772;-77
2023/07/09 12:11:59;;;;;;;5.22;4.18;;;37.90;23.20;;;;;;20546;6826;277828;-74
2023/07/09 12:14:26;;;;;;;5.03;3.57;;;38.10;22.60;;;;;;20790;6826;69875;-75
2023/07/09 12:16:50;;;;;;;5.40;3.90;;;38.20;22.80;;;;;;20577;6826;307287;-73
2023/07/09 12:19:16;;;;;;;3.95;3.70;;;38.40;22.60;;;;;;20786;6826;89276;-75
2023/07/09 12:21:45;;;;;;;4.10;3.70;;;38.40;22.80;;;;;;20774;6826;71665;-74
2023/07/09 12:24:21;;;;;;;5.53;3.40;;;38.10;22.50;;;;;;20784;6826;68306;-76
2023/07/09 12:26:47;;;;;;;4.12;3.75;;;38.10;22.40;;;;;;20762;6826;66256;-76
2023/07/09 12:29:12;;;;;;;4.63;3.90;;;37.90;22.30;;;;;;20570;6826;310187;-76
2023/07/09 12:31:39;;;;;;;3.50;3.30;;;38.10;22.50;;;;;;20794;6826;70595;-76
2023/07/09 12:34:04;;;;;;;4.37;3.70;;;38.10;21.90;;;;;;20797;6826;66273;-76
2023/07/09 12:36:30;;;;;;;4.20;3.80;;;38.00;22.00;;;;;;20572;6825;278207;-76
2023/07/09 12:38:56;;;;;;;3.97;3.67;;;38.20;21.30;;;;;;20789;6826;69993;-76
2023/07/09 12:41:24;;;;;;;4.30;3.90;;;38.20;21.70;;;;;;20756;6826;68499;-76
2023/07/09 12:43:49;;;;;;;4.33;3.90;;;38.20;21.90;;;;;;20540;6826;277215;-76